Time;durP1;ratioP1;P1;durP2;ratioP2;P2;SDS_P1;SDS_P2;PMS_P1;PMS_P2;Temp;Humidity;BMP_temperature;BMP_pressure;BME280_temperature;BME280_humidity;BME280_pressure;Samples;Min_cycle;Max_cycle;Signal;HPM_P1;HPM_P2
2022/09/09 00:00:21;;;;;;;25.80;8.10;;;;;;;39.76;36.93;101217.25;4975342;28;20464;-72
2022/09/09 00:03:06;;;;;;;20.00;7.53;;;;;;;39.56;37.51;101225.88;4974185;28;20434;-72
2022/09/09 00:05:41;;;;;;;22.07;7.97;;;;;;;40.18;36.71;101225.97;4964165;28;20521;-72
2022/09/09 00:08:18;;;;;;;21.93;8.27;;;;;;;40.11;36.19;101224.81;4960264;28;20454;-72
2022/09/09 00:10:51;;;;;;;34.20;9.23;;;;;;;39.65;36.87;101229.47;4974104;28;20426;-72
2022/09/09 00:13:25;;;;;;;17.83;7.20;;;;;;;39.55;37.06;101212.63;4973915;28;20561;-72
2022/09/09 00:16:08;;;;;;;21.63;7.57;;;;;;;39.71;36.77;101217.38;4975200;28;20421;-72
2022/09/09 00:18:51;;;;;;;22.17;7.67;;;;;;;39.77;36.36;101212.59;4960719;28;20431;-72
2022/09/09 00:21:18;;;;;;;18.60;7.37;;;;;;;39.92;36.11;101204.09;4978049;28;20469;-71
2022/09/09 00:24:27;;;;;;;20.50;8.13;;;;;;;39.52;37.29;101203.16;4975085;28;20798;-70
2022/09/09 00:27:01;;;;;;;16.10;8.90;;;;;;;40.09;36.18;101195.25;4948697;28;20422;-72
2022/09/09 00:29:35;;;;;;;26.13;8.53;;;;;;;39.61;36.83;101193.19;4968692;28;20793;-72
2022/09/09 00:32:13;;;;;;;26.33;8.50;;;;;;;39.61;36.91;101198.63;4966145;28;20817;-70
2022/09/09 00:35:18;;;;;;;16.50;7.57;;;;;;;39.57;37.32;101175.09;4989979;28;20432;-72
2022/09/09 00:37:47;;;;;;;24.87;8.40;;;;;;;39.40;37.53;101183.91;4973476;28;20430;-70
2022/09/09 00:40:23;;;;;;;15.87;7.00;;;;;;;39.39;37.52;101179.59;4974813;28;20429;-72
2022/09/09 00:42:58;;;;;;;23.00;9.20;;;;;;;39.47;37.45;101165.28;4973423;28;20434;-71
2022/09/09 00:46:02;;;;;;;22.80;10.10;;;;;;;39.55;36.99;101158.31;4973501;28;20513;-73
2022/09/09 00:48:51;;;;;;;21.17;7.30;;;;;;;39.52;36.94;101150.78;4933789;29;20470;-72
2022/09/09 00:51:46;;;;;;;20.60;8.20;;;;;;;39.30;37.62;101151.63;4970194;28;20435;-72
2022/09/09 00:54:33;;;;;;;16.40;8.37;;;;;;;39.53;37.24;101147.75;4974439;28;20457;-72
2022/09/09 00:57:14;;;;;;;23.33;8.50;;;;;;;39.49;36.95;101149.50;4961173;28;20486;-72
2022/09/09 00:59:50;;;;;;;22.27;7.23;;;;;;;39.38;37.26;101153.56;4971221;28;20469;-72
2022/09/09 01:02:43;;;;;;;22.43;9.43;;;;;;;39.79;36.92;101147.13;4962776;28;20462;-72
2022/09/09 01:05:50;;;;;;;24.07;6.70;;;;;;;39.47;37.19;101152.53;4972890;28;20434;-72
2022/09/09 01:08:35;;;;;;;21.03;7.87;;;;;;;39.30;37.84;101146.19;4972908;28;20429;-72
2022/09/09 01:11:04;;;;;;;18.73;7.57;;;;;;;39.68;37.06;101141.97;4971727;28;20477;-72
2022/09/09 01:13:34;;;;;;;19.33;8.03;;;;;;;39.99;36.57;101139.22;4973130;28;20426;-72
2022/09/09 01:16:04;;;;;;;27.43;8.47;;;;;;;39.64;37.29;101134.75;4988964;28;20438;-72
2022/09/09 01:18:39;;;;;;;43.50;9.37;;;;;;;39.90;36.72;101130.25;4989084;28;20430;-72
2022/09/09 01:21:41;;;;;;;15.40;6.97;;;;;;;39.78;37.20;101127.31;4988721;28;20461;-72
2022/09/09 01:24:18;;;;;;;14.93;7.23;;;;;;;39.62;37.24;101132.34;4973927;28;20424;-73
2022/09/09 01:26:47;;;;;;;14.20;7.70;;;;;;;39.85;36.84;101135.81;4974060;28;20926;-70
2022/09/09 01:29:16;;;;;;;14.63;7.83;;;;;;;39.58;37.38;101146.81;4972700;28;20513;-70
2022/09/09 01:31:51;;;;;;;16.13;7.20;;;;;;;39.79;36.69;101131.66;4973964;28;20434;-72
2022/09/09 01:34:18;;;;;;;13.63;5.97;;;;;;;39.91;36.59;101128.34;4972364;28;20469;-70
2022/09/09 01:37:04;;;;;;;18.30;8.47;;;;;;;39.61;37.26;101136.19;4973771;28;20804;-70
2022/09/09 01:39:31;;;;;;;16.90;7.33;;;;;;;39.61;37.54;101136.19;4988496;28;20438;-70
2022/09/09 01:41:58;;;;;;;20.07;8.00;;;;;;;39.95;37.00;101130.09;4972200;28;21009;-71
2022/09/09 01:44:26;;;;;;;13.90;7.30;;;;;;;39.96;36.56;101134.44;4988373;28;20430;-70
2022/09/09 01:46:52;;;;;;;13.50;8.07;;;;;;;39.49;37.58;101127.78;4956525;28;20894;-70
2022/09/09 01:49:19;;;;;;;18.20;10.20;;;;;;;39.85;37.24;101133.09;4973301;28;20834;-71
2022/09/09 01:51:49;;;;;;;25.57;10.13;;;;;;;40.03;37.24;101123.13;4972145;28;20418;-70
2022/09/09 01:54:15;;;;;;;33.97;7.87;;;;;;;39.87;37.01;101119.22;4972195;28;20426;-70
2022/09/09 01:56:46;;;;;;;22.80;8.30;;;;;;;39.93;37.01;101131.53;4944720;28;20446;-71
2022/09/09 01:59:34;;;;;;;22.10;8.60;;;;;;;39.58;37.23;101125.09;4988304;28;20513;-71
2022/09/09 02:02:07;;;;;;;19.37;9.03;;;;;;;39.75;37.27;101119.78;4975635;28;20458;-70
2022/09/09 02:04:49;;;;;;;20.70;7.60;;;;;;;39.82;36.92;101114.72;4972097;28;20517;-71
2022/09/09 02:07:42;;;;;;;12.40;5.83;;;;;;;39.79;36.86;101117.25;4953883;28;20419;-70
2022/09/09 02:10:32;;;;;;;14.80;6.93;;;;;;;40.01;36.73;101112.53;4963396;28;20501;-70
2022/09/09 02:13:09;;;;;;;27.37;9.63;;;;;;;39.57;37.20;101113.44;4947204;28;20453;-70
2022/09/09 02:16:01;;;;;;;15.60;6.80;;;;;;;39.59;37.00;101100.34;4972475;28;20524;-72
2022/09/09 02:18:48;;;;;;;20.17;8.30;;;;;;;40.08;36.06;101097.72;4971929;28;20437;-72
2022/09/09 02:21:16;;;;;;;13.73;6.77;;;;;;;39.64;36.84;101107.59;4960481;28;20474;-70
2022/09/09 02:23:43;;;;;;;18.77;7.73;;;;;;;39.51;37.12;101098.41;4955806;28;20818;-70
2022/09/09 02:26:14;;;;;;;20.87;9.67;;;;;;;39.84;36.55;101100.81;4972972;28;20414;-70
2022/09/09 02:28:42;;;;;;;11.73;7.03;;;;;;;39.82;36.83;101098.41;4955962;28;20903;-70
2022/09/09 02:31:09;;;;;;;13.63;6.97;;;;;;;39.86;36.38;101096.69;4971614;28;20421;-70
2022/09/09 02:33:41;;;;;;;19.57;6.90;;;;;;;40.09;36.17;101102.88;4955960;28;20430;-70
2022/09/09 02:36:10;;;;;;;20.70;7.53;;;;;;;40.22;35.79;101098.41;4971358;28;20426;-70
2022/09/09 02:38:42;;;;;;;32.33;9.70;;;;;;;39.88;36.22;101101.78;4955559;28;20436;-71
2022/09/09 02:41:09;;;;;;;21.70;8.33;;;;;;;39.99;36.17;101082.19;4971422;28;20474;-70
2022/09/09 02:43:37;;;;;;;20.03;9.50;;;;;;;40.03;35.86;101085.88;4955961;28;20456;-69
2022/09/09 02:46:33;;;;;;;22.17;7.47;;;;;;;39.48;37.30;101086.25;4971494;28;20430;-71
2022/09/09 02:49:01;;;;;;;11.03;6.73;;;;;;;39.78;36.51;101074.91;4957936;28;20441;-72
2022/09/09 02:52:00;;;;;;;20.27;7.80;;;;;;;39.86;36.55;101071.44;4972568;28;20438;-72
2022/09/09 02:54:32;;;;;;;34.23;9.00;;;;;;;39.79;36.91;101085.47;4968362;28;20426;-70
2022/09/09 02:57:23;;;;;;;22.07;7.33;;;;;;;40.06;36.65;101081.75;4955041;28;20548;-71
2022/09/09 02:59:51;;;;;;;25.73;9.40;;;;;;;40.11;36.51;101081.59;4987485;28;20473;-72
2022/09/09 03:02:18;;;;;;;22.63;8.00;;;;;;;39.97;36.52;101084.41;4971371;28;20466;-70
2022/09/09 03:04:44;;;;;;;19.60;8.60;;;;;;;40.14;35.88;101080.94;4987576;28;20426;-72
2022/09/09 03:07:11;;;;;;;16.03;6.57;;;;;;;40.12;35.49;101085.91;4971240;28;20422;-70
2022/09/09 03:09:37;;;;;;;13.13;5.60;;;;;;;39.65;36.63;101088.28;4955465;28;20501;-70
2022/09/09 03:12:04;;;;;;;17.57;8.17;;;;;;;39.89;36.18;101084.38;4987257;28;20419;-70
2022/09/09 03:14:30;;;;;;;24.23;9.97;;;;;;;39.80;36.39;101086.28;4971368;28;20429;-72
2022/09/09 03:17:00;;;;;;;25.87;9.83;;;;;;;39.72;36.46;101085.13;4972353;28;20442;-72
2022/09/09 03:19:27;;;;;;;15.13;7.93;;;;;;;40.25;35.68;101074.09;4974459;28;20521;-72
2022/09/09 03:21:54;;;;;;;20.93;9.40;;;;;;;40.20;36.03;101078.88;4971075;28;20555;-68
2022/09/09 03:24:21;;;;;;;16.30;6.27;;;;;;;40.45;35.95;101085.47;4971075;28;20525;-71
2022/09/09 03:26:47;;;;;;;25.30;9.07;;;;;;;40.33;35.96;101080.69;4960539;28;20419;-72
2022/09/09 03:29:13;;;;;;;23.30;10.73;;;;;;;40.29;35.87;101091.38;4968161;28;20442;-72
2022/09/09 03:31:39;;;;;;;16.23;6.33;;;;;;;39.86;36.67;101090.44;4972471;28;20510;-72
2022/09/09 03:34:06;;;;;;;26.63;8.90;;;;;;;39.94;36.28;101089.66;4972414;28;20473;-72
2022/09/09 03:36:32;;;;;;;16.40;7.93;;;;;;;39.79;36.02;101100.97;4990891;28;20926;-70
2022/09/09 03:38:59;;;;;;;14.13;6.77;;;;;;;40.08;36.00;101090.38;4974629;28;20992;-71
2022/09/09 03:41:26;;;;;;;14.53;6.40;;;;;;;39.94;36.05;101084.22;4958607;28;20465;-71
2022/09/09 03:43:52;;;;;;;26.93;9.63;;;;;;;40.02;36.07;101087.00;4974815;28;20577;-71
2022/09/09 03:46:19;;;;;;;35.63;10.60;;;;;;;39.99;36.29;101090.31;4970564;28;20525;-72
2022/09/09 03:48:46;;;;;;;33.00;7.93;;;;;;;39.94;36.39;101095.09;4964778;28;20939;-71
2022/09/09 03:51:12;;;;;;;19.73;8.87;;;;;;;39.78;36.53;101088.47;4974361;28;20434;-71
2022/09/09 03:53:38;;;;;;;14.20;7.70;;;;;;;39.49;37.27;101078.91;4975739;28;20476;-72
2022/09/09 03:56:06;;;;;;;23.90;8.07;;;;;;;39.61;36.85;101081.88;4974177;28;20457;-72
2022/09/09 03:58:34;;;;;;;24.80;8.60;;;;;;;39.63;37.15;101068.78;4974355;28;20501;-70
2022/09/09 04:01:05;;;;;;;12.53;6.20;;;;;;;39.80;36.76;101086.28;4961622;28;20541;-72
2022/09/09 04:03:32;;;;;;;17.33;7.60;;;;;;;39.68;37.13;101082.22;4961524;28;20476;-72
2022/09/09 04:06:00;;;;;;;16.33;7.90;;;;;;;39.99;36.49;101084.09;4958020;28;20430;-72
2022/09/09 04:08:26;;;;;;;27.77;7.87;;;;;;;40.23;36.23;101083.72;4958263;28;20426;-73
2022/09/09 04:10:57;;;;;;;26.83;9.77;;;;;;;39.50;37.20;101084.03;4973968;28;20425;-72
2022/09/09 04:13:25;;;;;;;29.03;8.87;;;;;;;39.49;36.85;101082.44;4989965;28;20441;-72
2022/09/09 04:15:56;;;;;;;23.70;7.73;;;;;;;39.50;36.74;101081.31;4957868;28;20926;-72
2022/09/09 04:18:23;;;;;;;24.70;9.87;;;;;;;39.65;36.33;101085.56;4962498;28;20458;-70
2022/09/09 04:20:50;;;;;;;12.23;6.03;;;;;;;39.65;36.46;101093.69;4971862;28;20466;-72
2022/09/09 04:23:18;;;;;;;20.87;7.50;;;;;;;39.57;36.63;101096.34;4974221;28;20942;-72
2022/09/09 04:25:46;;;;;;;18.87;7.33;;;;;;;39.28;37.29;101099.53;4964163;28;20947;-72
2022/09/09 04:28:14;;;;;;;23.50;7.53;;;;;;;39.23;37.39;101101.28;4974031;28;20429;-71
2022/09/09 04:30:41;;;;;;;20.20;8.20;;;;;;;39.67;36.98;101102.34;4989845;28;20426;-71
2022/09/09 04:33:07;;;;;;;21.33;7.77;;;;;;;39.61;36.97;101102.81;4973749;28;20485;-71
2022/09/09 04:35:34;;;;;;;23.57;7.37;;;;;;;39.72;36.81;101115.00;4989842;28;20521;-72
2022/09/09 04:38:02;;;;;;;14.70;7.20;;;;;;;39.51;37.15;101117.41;4973474;28;20419;-70
2022/09/09 04:40:29;;;;;;;20.50;9.53;;;;;;;39.58;36.92;101112.31;4989794;28;20503;-70
2022/09/09 04:42:58;;;;;;;9.73;6.97;;;;;;;39.65;36.90;101112.72;4973317;28;20493;-71
2022/09/09 04:45:26;;;;;;;21.77;7.93;;;;;;;39.44;37.26;101117.06;4989613;28;20423;-71
2022/09/09 04:47:53;;;;;;;19.90;7.97;;;;;;;39.43;36.97;101118.16;4962975;28;20435;-72
2022/09/09 04:50:19;;;;;;;20.33;7.17;;;;;;;39.81;36.85;101129.41;4973422;28;20434;-72
2022/09/09 04:52:45;;;;;;;22.77;7.20;;;;;;;39.77;36.99;101123.00;4973218;28;20434;-72
2022/09/09 04:55:12;;;;;;;18.10;8.47;;;;;;;39.91;36.92;101139.22;4973434;28;20426;-72
2022/09/09 04:57:39;;;;;;;29.37;8.70;;;;;;;40.12;36.78;101145.69;4974152;28;20512;-70
2022/09/09 05:00:06;;;;;;;12.70;6.10;;;;;;;39.96;36.50;101144.47;4972755;28;20474;-70
2022/09/09 05:02:33;;;;;;;18.53;8.00;;;;;;;39.87;36.26;101149.09;4989286;28;20466;-70
2022/09/09 05:04:59;;;;;;;23.80;8.67;;;;;;;39.82;36.14;101163.59;4973010;28;20430;-70
2022/09/09 05:07:28;;;;;;;21.00;7.17;;;;;;;39.50;36.72;101167.38;4989391;28;20977;-70
2022/09/09 05:09:56;;;;;;;14.50;8.10;;;;;;;39.37;36.19;101168.25;4989138;28;20469;-71
2022/09/09 05:12:23;;;;;;;19.67;6.93;;;;;;;39.77;35.77;101171.88;4972516;28;20477;-72
2022/09/09 05:14:50;;;;;;;18.57;7.50;;;;;;;38.47;37.54;101180.78;4989038;28;20429;-71
2022/09/09 05:17:16;;;;;;;21.93;6.60;;;;;;;38.99;36.69;101176.72;4972689;28;20517;-72
2022/09/09 05:19:42;;;;;;;27.80;7.10;;;;;;;39.39;36.71;101176.88;4972803;28;20426;-71
2022/09/09 05:22:08;;;;;;;16.27;6.53;;;;;;;38.71;37.02;101173.22;4988792;28;20841;-70
2022/09/09 05:24:36;;;;;;;22.33;8.03;;;;;;;39.03;36.83;101177.69;4972697;28;20434;-70
2022/09/09 05:27:02;;;;;;;18.00;7.40;;;;;;;38.34;37.59;101172.38;4950814;28;20469;-70
2022/09/09 05:29:28;;;;;;;11.50;5.30;;;;;;;38.77;37.30;101179.38;4971559;28;20422;-70
2022/09/09 05:31:54;;;;;;;20.77;5.67;;;;;;;38.85;37.42;101184.88;4971718;28;20446;-70
2022/09/09 05:34:20;;;;;;;11.07;6.13;;;;;;;39.24;36.82;101183.50;4972339;28;20438;-71
2022/09/09 05:36:47;;;;;;;17.00;6.57;;;;;;;38.99;37.31;101178.63;4972249;28;20541;-71
2022/09/09 05:39:13;;;;;;;26.63;6.60;;;;;;;39.69;36.15;101180.78;4972267;28;20426;-71
2022/09/09 05:41:39;;;;;;;17.90;8.00;;;;;;;39.52;36.73;101183.34;4971980;28;20470;-71
2022/09/09 05:44:06;;;;;;;22.30;6.53;;;;;;;39.76;36.18;101179.22;4984594;28;20437;-72
2022/09/09 05:46:32;;;;;;;18.93;7.00;;;;;;;39.87;36.03;101189.84;4982116;28;20457;-78
2022/09/09 05:49:02;;;;;;;16.23;8.30;;;;;;;39.09;36.71;101194.66;4972182;28;20427;-84
2022/09/09 05:51:32;;;;;;;18.27;5.90;;;;;;;38.97;36.87;101190.56;4967758;28;21002;-78
2022/09/09 05:53:58;;;;;;;10.60;6.83;;;;;;;39.63;36.46;101196.41;4963728;28;20422;-77
2022/09/09 05:56:27;;;;;;;17.40;7.00;;;;;;;39.52;36.42;101196.94;4964678;28;20436;-75
2022/09/09 05:58:54;;;;;;;11.90;6.67;;;;;;;39.66;36.21;101197.72;4972378;28;20458;-74
2022/09/09 06:01:26;;;;;;;23.43;6.70;;;;;;;38.87;37.14;101196.22;4965152;28;20509;-75
2022/09/09 06:03:53;;;;;;;15.80;5.90;;;;;;;38.91;37.15;101191.00;4967824;28;20415;-74
2022/09/09 06:06:25;;;;;;;29.90;9.33;;;;;;;39.45;36.45;101198.16;4971453;28;20453;-72
2022/09/09 06:08:54;;;;;;;11.87;6.83;;;;;;;38.96;37.36;101196.31;4972432;28;20414;-73
2022/09/09 06:11:26;;;;;;;23.93;9.13;;;;;;;39.38;36.66;101207.84;4971694;28;20453;-74
2022/09/09 06:13:54;;;;;;;15.63;7.10;;;;;;;39.74;36.20;101200.47;4972048;28;20480;-74
2022/09/09 06:16:26;;;;;;;12.63;6.97;;;;;;;39.62;36.22;101230.09;4971622;28;20449;-73
2022/09/09 06:18:54;;;;;;;15.47;7.90;;;;;;;39.49;36.62;101212.75;4971819;28;20510;-73
2022/09/09 06:21:23;;;;;;;12.33;7.73;;;;;;;39.59;36.38;101214.38;4973076;28;20461;-74
2022/09/09 06:23:51;;;;;;;20.73;7.40;;;;;;;39.22;36.80;101213.63;4972679;28;20422;-73
2022/09/09 06:26:22;;;;;;;21.97;7.50;;;;;;;39.59;36.37;101227.97;4971296;28;20457;-70
2022/09/09 06:28:50;;;;;;;22.30;9.73;;;;;;;39.86;36.14;101227.06;4970492;28;20442;-73
2022/09/09 06:31:22;;;;;;;19.57;7.30;;;;;;;39.88;36.04;101221.31;4972794;28;20454;-74
2022/09/09 06:33:52;;;;;;;20.57;7.97;;;;;;;39.88;36.10;101227.53;4970741;28;20493;-75
2022/09/09 06:36:18;;;;;;;24.50;11.07;;;;;;;39.64;36.27;101236.00;4970834;28;20431;-72
2022/09/09 06:38:45;;;;;;;24.00;9.70;;;;;;;40.17;35.59;101227.09;4970666;28;20442;-72
2022/09/09 06:41:14;;;;;;;16.37;7.27;;;;;;;40.40;34.72;101227.03;4954746;28;20544;-73
2022/09/09 06:43:40;;;;;;;25.30;8.40;;;;;;;40.34;34.57;101237.22;4972308;28;20418;-74
2022/09/09 06:46:10;;;;;;;17.13;7.83;;;;;;;40.38;34.28;101245.53;4972123;28;20991;-72
2022/09/09 06:48:36;;;;;;;23.37;8.13;;;;;;;40.21;34.45;101238.13;4977904;28;20469;-72
2022/09/09 06:51:13;;;;;;;22.33;8.90;;;;;;;39.88;35.39;101248.47;4965768;28;20909;-74
2022/09/09 06:53:41;;;;;;;17.63;7.33;;;;;;;39.76;35.65;101260.69;4969623;28;20418;-74
2022/09/09 06:56:10;;;;;;;19.23;8.10;;;;;;;39.96;35.61;101256.69;4942088;28;21015;-73
2022/09/09 06:58:42;;;;;;;19.13;11.67;;;;;;;39.74;35.68;101259.41;4971013;28;20545;-72
2022/09/09 07:01:09;;;;;;;19.43;7.83;;;;;;;39.88;35.25;101251.97;4971288;28;20989;-73
2022/09/09 07:03:36;;;;;;;17.10;8.70;;;;;;;40.17;34.71;101256.19;4971283;28;20522;-75
2022/09/09 07:06:04;;;;;;;21.70;6.87;;;;;;;40.44;34.26;101275.00;4971184;28;20442;-72
2022/09/09 07:08:31;;;;;;;20.60;8.10;;;;;;;40.32;34.47;101265.81;4973424;28;20517;-74
2022/09/09 07:11:07;;;;;;;14.27;8.63;;;;;;;40.06;34.83;101265.69;4974494;28;20417;-72
2022/09/09 07:13:34;;;;;;;15.17;7.37;;;;;;;39.96;35.47;101273.00;4974900;28;20462;-74
2022/09/09 07:16:11;;;;;;;17.63;8.00;;;;;;;40.47;34.50;101274.41;4974562;28;20432;-74
2022/09/09 07:18:39;;;;;;;21.83;10.60;;;;;;;40.61;34.57;101279.72;4973567;28;20422;-74
2022/09/09 07:21:06;;;;;;;19.70;8.57;;;;;;;40.65;34.54;101278.00;4975033;28;20497;-74
2022/09/09 07:23:32;;;;;;;22.73;7.80;;;;;;;40.50;35.01;101292.78;4974375;28;20437;-74
2022/09/09 07:25:59;;;;;;;20.63;10.20;;;;;;;40.48;34.55;101296.97;4990966;28;20433;-74
2022/09/09 07:28:30;;;;;;;21.30;11.20;;;;;;;40.29;35.16;101299.88;4974738;28;20426;-73
2022/09/09 07:30:59;;;;;;;15.40;7.33;;;;;;;40.08;35.27;101305.03;4974733;28;20411;-73
2022/09/09 07:33:25;;;;;;;18.47;9.30;;;;;;;40.17;35.34;101297.75;4974510;28;20428;-74
2022/09/09 07:35:52;;;;;;;18.83;7.87;;;;;;;40.24;35.32;101295.38;4990475;28;20926;-74
2022/09/09 07:38:21;;;;;;;23.60;9.10;;;;;;;40.40;35.09;101295.78;4974626;28;20505;-74
2022/09/09 07:40:47;;;;;;;18.70;8.80;;;;;;;40.22;35.23;101297.63;4990685;28;20462;-73
2022/09/09 07:43:13;;;;;;;14.90;6.30;;;;;;;40.40;34.15;101293.06;4974499;28;20438;-74
2022/09/09 07:45:40;;;;;;;15.23;7.93;;;;;;;40.31;35.01;101296.84;4974827;28;20441;-74
2022/09/09 07:48:06;;;;;;;17.77;8.20;;;;;;;40.32;34.90;101284.84;4990587;28;20480;-73
2022/09/09 07:50:32;;;;;;;28.73;8.23;;;;;;;40.05;35.53;101294.78;4974567;28;20496;-74
2022/09/09 07:52:59;;;;;;;30.87;6.77;;;;;;;40.31;34.97;101305.00;4990649;28;20430;-74
2022/09/09 07:55:26;;;;;;;25.40;9.50;;;;;;;40.66;34.72;101301.34;4974412;28;20428;-73
2022/09/09 07:57:54;;;;;;;19.50;9.10;;;;;;;40.88;34.20;101305.06;4975504;28;20442;-74
2022/09/09 08:00:21;;;;;;;21.63;8.23;;;;;;;40.60;34.86;101312.69;4974027;28;20480;-73
2022/09/09 08:02:48;;;;;;;28.03;8.10;;;;;;;40.33;35.07;101308.19;4990481;28;21061;-74
2022/09/09 08:05:14;;;;;;;17.03;6.93;;;;;;;40.62;34.39;101313.16;4975279;28;20441;-72
2022/09/09 08:07:41;;;;;;;16.37;6.90;;;;;;;40.63;34.02;101328.34;4974223;28;20522;-73
2022/09/09 08:10:07;;;;;;;14.50;7.03;;;;;;;40.07;34.78;101332.50;4990324;28;20821;-73
2022/09/09 08:12:33;;;;;;;15.80;8.47;;;;;;;40.33;34.40;101325.34;4990211;28;20422;-74
2022/09/09 08:14:59;;;;;;;20.53;9.53;;;;;;;39.93;34.82;101325.22;4975225;28;20429;-74
2022/09/09 08:17:25;;;;;;;27.60;11.83;;;;;;;39.87;35.54;101321.00;4973795;28;20464;-75
2022/09/09 08:19:52;;;;;;;20.23;10.27;;;;;;;40.25;34.97;101326.06;4989560;28;20950;-74
2022/09/09 08:22:18;;;;;;;14.73;9.23;;;;;;;40.05;35.53;101332.84;4989854;28;20473;-75
2022/09/09 08:24:44;;;;;;;22.70;10.30;;;;;;;40.42;35.03;101323.44;4975086;28;20421;-75
2022/09/09 08:27:10;;;;;;;29.23;12.13;;;;;;;39.53;36.57;101328.84;4960715;28;20419;-75
2022/09/09 08:29:37;;;;;;;30.13;11.23;;;;;;;40.25;35.65;101340.47;4974975;28;20426;-75
2022/09/09 08:32:04;;;;;;;25.83;9.40;;;;;;;40.63;34.74;101331.06;4975832;28;20948;-74
2022/09/09 08:34:31;;;;;;;25.17;11.50;;;;;;;40.62;35.00;101343.88;4975792;28;20918;-74
2022/09/09 08:36:57;;;;;;;16.03;9.57;;;;;;;40.91;34.55;101345.28;4974285;28;20427;-79
2022/09/09 08:39:24;;;;;;;22.50;11.43;;;;;;;41.18;34.19;101341.50;4974496;28;20803;-74
2022/09/09 08:42:13;;;;;;;20.30;12.60;;;;;;;40.75;34.28;101342.97;4973539;28;20520;-73
2022/09/09 08:44:50;;;;;;;16.80;8.63;;;;;;;41.09;34.24;101346.94;4962265;28;20454;-76
2022/09/09 08:47:24;;;;;;;19.10;8.00;;;;;;;40.06;35.63;101348.03;4970425;28;20431;-73
2022/09/09 08:49:56;;;;;;;20.30;9.57;;;;;;;40.97;34.79;101355.72;4973471;28;20425;-73
2022/09/09 08:52:45;;;;;;;9.33;5.90;;;;;;;40.50;34.75;101343.66;4973173;28;20477;-73
2022/09/09 08:56:08;;;;;;;14.70;7.27;;;;;;;41.02;33.98;101341.97;4972896;28;20465;-73
2022/09/09 08:58:40;;;;;;;21.90;7.13;;;;;;;40.73;34.46;101341.69;4917932;29;20472;-73
2022/09/09 09:01:35;;;;;;;16.87;7.60;;;;;;;40.54;34.54;101341.94;4933648;29;20539;-74
2022/09/09 09:04:38;;;;;;;14.83;9.17;;;;;;;40.52;34.65;101346.88;4952652;28;20434;-72
2022/09/09 09:07:41;;;;;;;22.30;9.13;;;;;;;40.08;35.61;101340.34;4960127;28;20781;-72
2022/09/09 09:10:24;;;;;;;19.43;9.50;;;;;;;40.80;34.66;101345.53;4959238;28;21009;-72
2022/09/09 09:12:50;;;;;;;18.70;9.57;;;;;;;40.88;35.00;101343.97;4974395;28;20429;-72
2022/09/09 09:15:25;;;;;;;23.60;7.40;;;;;;;41.12;34.44;101338.13;4956557;28;20518;-72
2022/09/09 09:17:51;;;;;;;19.33;8.33;;;;;;;40.91;34.55;101348.81;4972936;28;20437;-72
2022/09/09 09:20:29;;;;;;;10.60;7.43;;;;;;;40.41;35.46;101342.78;4972862;28;20521;-73
2022/09/09 09:23:00;;;;;;;21.50;7.10;;;;;;;40.16;35.46;101349.69;4957894;28;20449;-73
2022/09/09 09:25:39;;;;;;;20.50;9.30;;;;;;;40.72;34.59;101356.41;4972967;28;20430;-74
2022/09/09 09:28:21;;;;;;;23.40;13.40;;;;;;;40.50;35.38;101355.34;4972671;28;20426;-74
2022/09/09 09:30:52;;;;;;;30.63;17.37;;;;;;;41.16;34.29;101362.81;4988014;28;20426;-74
2022/09/09 09:33:27;;;;;;;29.17;15.13;;;;;;;41.20;34.50;101364.59;4972712;28;20551;-72
2022/09/09 09:35:53;;;;;;;18.80;8.43;;;;;;;40.31;35.15;101375.66;4988329;28;20809;-73
2022/09/09 09:38:25;;;;;;;23.23;7.37;;;;;;;40.24;35.60;101366.03;4988703;28;20946;-73
2022/09/09 09:40:57;;;;;;;22.07;9.53;;;;;;;41.22;34.54;101356.09;4972250;28;20462;-73
2022/09/09 09:43:29;;;;;;;21.47;8.50;;;;;;;41.23;34.32;101347.59;4972581;28;20432;-73
2022/09/09 09:45:57;;;;;;;14.50;8.73;;;;;;;40.55;35.54;101351.69;4956212;28;20430;-73
2022/09/09 09:48:24;;;;;;;26.90;10.77;;;;;;;40.44;35.98;101334.81;4972362;28;20461;-75
2022/09/09 09:50:53;;;;;;;25.20;9.97;;;;;;;40.70;35.00;101334.97;4988396;28;20883;-75
2022/09/09 09:53:24;;;;;;;19.30;8.00;;;;;;;40.18;35.99;101342.81;4988326;28;20497;-75
2022/09/09 09:55:55;;;;;;;30.70;10.47;;;;;;;39.99;36.22;101342.19;4988460;28;20429;-75
2022/09/09 09:58:22;;;;;;;29.97;10.00;;;;;;;39.62;36.54;101338.72;4987754;28;20442;-74
2022/09/09 10:00:51;;;;;;;18.30;9.53;;;;;;;40.36;35.83;101343.72;4972358;28;20594;-75
2022/09/09 10:03:41;;;;;;;15.67;7.80;;;;;;;40.39;35.48;101350.44;4973166;28;20414;-75
2022/09/09 10:06:07;;;;;;;23.70;9.37;;;;;;;39.69;36.15;101349.16;4971896;28;20881;-74
2022/09/09 10:08:48;;;;;;;14.53;8.83;;;;;;;40.28;35.86;101361.59;4988069;28;20424;-75
2022/09/09 10:11:50;;;;;;;25.07;10.33;;;;;;;40.29;35.04;101357.75;4988087;28;20425;-75
2022/09/09 10:14:30;;;;;;;18.33;10.03;;;;;;;40.44;35.30;101363.91;4978079;28;20453;-74
2022/09/09 10:16:56;;;;;;;14.53;9.53;;;;;;;40.76;34.96;101358.19;4967820;28;20426;-75
2022/09/09 10:19:32;;;;;;;13.43;8.57;;;;;;;40.92;34.32;101357.78;4987994;28;20426;-76
2022/09/09 10:22:34;;;;;;;24.10;9.83;;;;;;;40.86;34.44;101365.25;4971675;28;20477;-76
2022/09/09 10:25:22;;;;;;;22.03;8.60;;;;;;;41.08;33.89;101361.69;4978582;28;20418;-79
2022/09/09 10:28:07;;;;;;;22.17;9.50;;;;;;;40.75;34.26;101353.84;4971804;28;20474;-77
2022/09/09 10:31:17;;;;;;;26.50;10.20;;;;;;;40.67;34.74;101346.47;4987892;28;20417;-74
2022/09/09 10:34:21;;;;;;;17.83;8.97;;;;;;;40.94;34.54;101342.72;4905140;29;20961;-80
2022/09/09 10:36:50;;;;;;;17.77;9.60;;;;;;;40.91;34.49;101345.28;4913832;29;20425;-78
2022/09/09 10:39:34;;;;;;;18.50;8.87;;;;;;;40.50;34.99;101357.25;4960293;28;20458;-81
2022/09/09 10:42:12;;;;;;;26.00;10.10;;;;;;;40.64;34.61;101357.97;4972654;28;21049;-79
2022/09/09 10:45:17;;;;;;;24.70;11.17;;;;;;;40.76;34.46;101350.03;4972801;28;20823;-81
2022/09/09 10:47:55;;;;;;;18.33;9.33;;;;;;;40.71;34.82;101352.88;4957804;28;20430;-81
2022/09/09 10:50:39;;;;;;;15.70;7.83;;;;;;;40.84;34.57;101370.22;4971386;28;20433;-81
2022/09/09 10:53:46;;;;;;;27.60;10.27;;;;;;;41.38;33.70;101331.97;4972685;28;20426;-81
2022/09/09 10:56:16;;;;;;;20.00;9.67;;;;;;;41.19;33.50;101337.66;4972739;28;20528;-82
2022/09/09 10:58:50;;;;;;;25.00;9.67;;;;;;;40.19;35.50;101340.91;4971380;28;20851;-82
2022/09/09 11:01:29;;;;;;;19.40;8.77;;;;;;;40.74;35.15;101325.03;4970997;28;20468;-82
2022/09/09 11:04:13;;;;;;;19.50;9.40;;;;;;;40.68;34.31;101320.84;4971479;28;20433;-83
2022/09/09 11:06:44;;;;;;;16.03;7.60;;;;;;;40.99;34.34;101323.53;4971302;28;20848;-81
2022/09/09 11:09:18;;;;;;;22.03;8.33;;;;;;;40.52;34.84;101316.97;4971328;28;20513;-81
2022/09/09 11:11:55;;;;;;;16.63;8.80;;;;;;;40.95;33.93;101317.16;4987753;28;20417;-80
2022/09/09 11:14:42;;;;;;;13.60;8.60;;;;;;;40.73;34.10;101323.44;4971336;28;20437;-82
2022/09/09 11:17:18;;;;;;;17.97;8.77;;;;;;;40.93;34.11;101313.94;4971033;28;21012;-81
2022/09/09 11:19:45;;;;;;;30.47;10.23;;;;;;;41.48;33.88;101297.03;4971179;28;20418;-82
2022/09/09 11:22:52;;;;;;;25.97;9.57;;;;;;;41.45;32.84;101303.16;4957422;28;20465;-82
2022/09/09 11:25:21;;;;;;;20.97;11.83;;;;;;;41.11;33.89;101300.34;4968513;28;20509;-82
2022/09/09 11:28:22;;;;;;;21.37;10.73;;;;;;;41.10;34.03;101299.56;4970971;28;20421;-82
2022/09/09 11:31:11;;;;;;;17.53;7.80;;;;;;;40.98;34.13;101297.44;4987136;28;20429;-82
2022/09/09 11:34:14;;;;;;;29.13;9.10;;;;;;;41.55;33.62;101283.75;4971224;28;20414;-81
2022/09/09 11:37:05;;;;;;;13.67;8.00;;;;;;;40.94;34.08;101288.31;4975895;28;20445;-81
2022/09/09 11:39:31;;;;;;;30.30;10.37;;;;;;;41.71;33.42;101289.50;4971022;28;20406;-81
2022/09/09 11:42:15;;;;;;;16.07;8.10;;;;;;;41.41;33.69;101285.03;4986878;28;20533;-82
2022/09/09 11:44:42;;;;;;;24.50;10.30;;;;;;;42.23;32.60;101277.72;4987081;28;20425;-81